sensor_id;sensor_type;location;lat;lon;timestamp;pressure;altitude;pressure_sealevel;temperature;humidity
70254;BME280;57649;42.968;1.608;2022-12-18T00:01:32;97798.47;;;2.70;100.00
70254;BME280;57649;42.968;1.608;2022-12-18T00:03:59;97811.09;;;2.54;100.00
70254;BME280;57649;42.968;1.608;2022-12-18T00:06:26;97808.88;;;2.48;100.00
70254;BME280;57649;42.968;1.608;2022-12-18T00:08:53;97805.28;;;2.36;100.00
70254;BME280;57649;42.968;1.608;2022-12-18T00:11:22;97800.34;;;2.44;100.00
70254;BME280;57649;42.968;1.608;2022-12-18T00:13:49;97802.34;;;2.41;100.00
70254;BME280;57649;42.968;1.608;2022-12-18T00:16:19;97801.16;;;2.45;100.00
70254;BME280;57649;42.968;1.608;2022-12-18T00:18:46;97794.53;;;2.39;100.00
70254;BME280;57649;42.968;1.608;2022-12-18T00:21:13;97792.84;;;2.38;100.00
70254;BME280;57649;42.968;1.608;2022-12-18T00:23:40;97794.50;;;2.52;100.00
70254;BME280;57649;42.968;1.608;2022-12-18T00:26:09;97789.44;;;2.36;100.00
70254;BME280;57649;42.968;1.608;2022-12-18T00:28:35;97800.78;;;2.38;100.00
70254;BME280;57649;42.968;1.608;2022-12-18T00:33:27;97798.22;;;2.37;100.00
70254;BME280;57649;42.968;1.608;2022-12-18T00:35:52;97804.25;;;2.39;100.00
70254;BME280;57649;42.968;1.608;2022-12-18T00:38:18;97803.81;;;2.32;100.00
70254;BME280;57649;42.968;1.608;2022-12-18T00:40:43;97807.19;;;2.34;100.00
70254;BME280;57649;42.968;1.608;2022-12-18T00:43:09;97803.94;;;2.30;100.00
70254;BME280;57649;42.968;1.608;2022-12-18T00:45:34;97823.16;;;2.20;100.00
70254;BME280;57649;42.968;1.608;2022-12-18T00:47:59;97813.66;;;2.17;100.00
70254;BME280;57649;42.968;1.608;2022-12-18T00:50:25;97826.44;;;2.23;100.00
70254;BME280;57649;42.968;1.608;2022-12-18T00:52:51;97819.88;;;2.16;100.00
70254;BME280;57649;42.968;1.608;2022-12-18T00:55:17;97820.94;;;2.14;100.00
70254;BME280;57649;42.968;1.608;2022-12-18T00:57:42;97827.69;;;2.18;100.00
70254;BME280;57649;42.968;1.608;2022-12-18T01:00:12;97830.47;;;2.29;100.00
70254;BME280;57649;42.968;1.608;2022-12-18T01:02:38;97833.41;;;2.37;100.00
70254;BME280;57649;42.968;1.608;2022-12-18T01:05:04;97824.41;;;2.40;98.99
70254;BME280;57649;42.968;1.608;2022-12-18T01:07:30;97824.56;;;2.38;99.73
70254;BME280;57649;42.968;1.608;2022-12-18T01:09:55;97832.06;;;2.31;99.39
70254;BME280;57649;42.968;1.608;2022-12-18T01:12:21;97830.03;;;2.22;100.00
70254;BME280;57649;42.968;1.608;2022-12-18T01:14:47;97835.13;;;2.25;100.00
70254;BME280;57649;42.968;1.608;2022-12-18T01:17:12;97835.72;;;2.16;100.00
70254;BME280;57649;42.968;1.608;2022-12-18T01:19:37;97836.59;;;2.17;100.00
70254;BME280;57649;42.968;1.608;2022-12-18T01:22:03;97845.88;;;2.22;100.00
70254;BME280;57649;42.968;1.608;2022-12-18T01:24:28;97845.16;;;2.20;100.00
70254;BME280;57649;42.968;1.608;2022-12-18T01:26:54;97841.00;;;2.16;100.00
70254;BME280;57649;42.968;1.608;2022-12-18T01:29:19;97835.44;;;2.21;100.00
70254;BME280;57649;42.968;1.608;2022-12-18T01:31:44;97840.16;;;2.16;100.00
70254;BME280;57649;42.968;1.608;2022-12-18T01:34:10;97830.03;;;2.35;99.51
70254;BME280;57649;42.968;1.608;2022-12-18T01:36:37;97847.16;;;2.42;98.31
70254;BME280;57649;42.968;1.608;2022-12-18T01:39:07;97853.47;;;2.40;98.92
70254;BME280;57649;42.968;1.608;2022-12-18T01:41:33;97853.19;;;2.31;99.42
70254;BME280;57649;42.968;1.608;2022-12-18T01:49:57;97874.59;;;2.01;100.00
70254;BME280;57649;42.968;1.608;2022-12-18T01:52:25;97876.91;;;1.93;100.00
70254;BME280;57649;42.968;1.608;2022-12-18T01:54:52;97879.00;;;1.88;100.00
70254;BME280;57649;42.968;1.608;2022-12-18T01:57:18;97875.03;;;1.68;100.00
70254;BME280;57649;42.968;1.608;2022-12-18T01:59:47;97886.16;;;1.73;100.00
70254;BME280;57649;42.968;1.608;2022-12-18T02:02:16;97884.41;;;1.59;100.00
70254;BME280;57649;42.968;1.608;2022-12-18T02:04:42;97902.50;;;1.65;100.00
70254;BME280;57649;42.968;1.608;2022-12-18T02:17:45;97917.03;;;1.85;100.00
70254;BME280;57649;42.968;1.608;2022-12-18T02:28:19;97923.69;;;1.91;100.00
70254;BME280;57649;42.968;1.608;2022-12-18T02:30:47;97934.53;;;1.86;100.00
70254;BME280;57649;42.968;1.608;2022-12-18T02:33:15;97940.03;;;1.83;100.00
70254;BME280;57649;42.968;1.608;2022-12-18T02:35:41;97941.63;;;1.86;100.00
70254;BME280;57649;42.968;1.608;2022-12-18T02:38:09;97932.56;;;1.90;100.00
70254;BME280;57649;42.968;1.608;2022-12-18T02:40:35;97937.50;;;1.82;100.00
70254;BME280;57649;42.968;1.608;2022-12-18T02:43:13;97940.88;;;1.84;100.00
70254;BME280;57649;42.968;1.608;2022-12-18T02:45:55;97944.38;;;1.84;100.00
70254;BME280;57649;42.968;1.608;2022-12-18T02:48:29;97954.59;;;1.76;100.00
70254;BME280;57649;42.968;1.608;2022-12-18T02:51:03;97951.25;;;1.60;100.00
70254;BME280;57649;42.968;1.608;2022-12-18T02:53:53;97959.75;;;1.50;100.00
70254;BME280;57649;42.968;1.608;2022-12-18T02:56:35;97952.78;;;1.35;100.00
70254;BME280;57649;42.968;1.608;2022-12-18T02:59:12;97953.16;;;1.43;100.00
70254;BME280;57649;42.968;1.608;2022-12-18T03:01:44;97956.75;;;1.42;100.00
70254;BME280;57649;42.968;1.608;2022-12-18T03:04:28;97951.56;;;1.41;100.00
70254;BME280;57649;42.968;1.608;2022-12-18T03:07:02;97956.75;;;1.42;100.00
70254;BME280;57649;42.968;1.608;2022-12-18T03:09:38;97954.00;;;1.44;100.00
70254;BME280;57649;42.968;1.608;2022-12-18T03:12:35;97953.91;;;1.45;100.00
70254;BME280;57649;42.968;1.608;2022-12-18T03:15:19;97950.22;;;1.48;100.00
70254;BME280;57649;42.968;1.608;2022-12-18T03:17:56;97948.63;;;1.45;100.00
70254;BME280;57649;42.968;1.608;2022-12-18T03:20:25;97951.88;;;1.36;100.00
70254;BME280;57649;42.968;1.608;2022-12-18T03:22:57;97949.31;;;1.34;100.00
70254;BME280;57649;42.968;1.608;2022-12-18T03:25:25;97943.28;;;1.47;100.00
70254;BME280;57649;42.968;1.608;2022-12-18T03:27:55;97939.09;;;1.43;100.00
70254;BME280;57649;42.968;1.608;2022-12-18T03:30:23;97925.28;;;1.39;100.00
70254;BME280;57649;42.968;1.608;2022-12-18T03:33:07;97936.28;;;1.46;100.00
70254;BME280;57649;42.968;1.608;2022-12-18T03:35:38;97936.44;;;1.57;100.00
70254;BME280;57649;42.968;1.608;2022-12-18T03:38:04;97929.94;;;1.48;100.00
70254;BME280;57649;42.968;1.608;2022-12-18T03:40:35;97925.00;;;1.44;100.00
70254;BME280;57649;42.968;1.608;2022-12-18T03:43:10;97923.66;;;1.51;100.00
70254;BME280;57649;42.968;1.608;2022-12-18T03:45:42;97915.19;;;1.46;100.00
70254;BME280;57649;42.968;1.608;2022-12-18T03:48:19;97917.53;;;1.50;100.00
70254;BME280;57649;42.968;1.608;2022-12-18T03:50:52;97919.22;;;1.51;100.00
70254;BME280;57649;42.968;1.608;2022-12-18T03:53:32;97921.75;;;1.53;100.00
70254;BME280;57649;42.968;1.608;2022-12-18T03:56:00;97916.94;;;1.60;100.00
70254;BME280;57649;42.968;1.608;2022-12-18T03:58:28;97917.13;;;1.57;100.00
70254;BME280;57649;42.968;1.608;2022-12-18T04:00:56;97909.41;;;1.53;100.00
70254;BME280;57649;42.968;1.608;2022-12-18T04:03:26;97912.91;;;1.54;100.00
70254;BME280;57649;42.968;1.608;2022-12-18T04:05:54;97909.06;;;1.45;100.00
70254;BME280;57649;42.968;1.608;2022-12-18T04:08:22;97907.25;;;1.46;100.00
70254;BME280;57649;42.968;1.608;2022-12-18T04:10:48;97901.94;;;1.60;100.00
70254;BME280;57649;42.968;1.608;2022-12-18T04:13:25;97900.66;;;1.53;100.00
70254;BME280;57649;42.968;1.608;2022-12-18T04:15:52;97890.84;;;1.55;100.00
70254;BME280;57649;42.968;1.608;2022-12-18T04:18:18;97888.78;;;1.46;99.57
70254;BME280;57649;42.968;1.608;2022-12-18T04:20:44;97892.00;;;1.51;99.43
70254;BME280;57649;42.968;1.608;2022-12-18T04:23:09;97898.09;;;1.51;99.42
70254;BME280;57649;42.968;1.608;2022-12-18T04:25:34;97886.41;;;1.56;99.09
70254;BME280;57649;42.968;1.608;2022-12-18T04:28:00;97883.94;;;1.67;98.59
70254;BME280;57649;42.968;1.608;2022-12-18T04:30:25;97877.25;;;1.61;98.01
70254;BME280;57649;42.968;1.608;2022-12-18T04:32:51;97880.41;;;1.66;98.34
70254;BME280;57649;42.968;1.608;2022-12-18T04:35:16;97882.31;;;1.64;98.27
70254;BME280;57649;42.968;1.608;2022-12-18T04:37:41;97872.16;;;1.58;98.62
70254;BME280;57649;42.968;1.608;2022-12-18T04:40:07;97868.69;;;1.58;98.68
70254;BME280;57649;42.968;1.608;2022-12-18T04:42:33;97874.44;;;1.50;98.94
70254;BME280;57649;42.968;1.608;2022-12-18T04:44:58;97853.69;;;1.58;98.15
70254;BME280;57649;42.968;1.608;2022-12-18T04:47:24;97852.00;;;1.57;97.81
70254;BME280;57649;42.968;1.608;2022-12-18T04:49:49;97847.47;;;1.59;97.67
70254;BME280;57649;42.968;1.608;2022-12-18T04:52:15;97841.06;;;1.63;97.50
70254;BME280;57649;42.968;1.608;2022-12-18T04:54:40;97844.44;;;1.65;96.98
70254;BME280;57649;42.968;1.608;2022-12-18T04:57:05;97846.47;;;1.75;96.61
70254;BME280;57649;42.968;1.608;2022-12-18T04:59:31;97854.66;;;1.70;96.88
70254;BME280;57649;42.968;1.608;2022-12-18T05:01:56;97857.13;;;1.73;96.34
70254;BME280;57649;42.968;1.608;2022-12-18T05:04:22;97851.94;;;1.71;95.80
70254;BME280;57649;42.968;1.608;2022-12-18T05:06:47;97864.28;;;1.71;95.70
70254;BME280;57649;42.968;1.608;2022-12-18T05:09:12;97871.16;;;1.73;95.63
70254;BME280;57649;42.968;1.608;2022-12-18T05:11:38;97867.31;;;1.65;96.51
70254;BME280;57649;42.968;1.608;2022-12-18T05:14:03;97877.06;;;1.77;95.64
70254;BME280;57649;42.968;1.608;2022-12-18T05:16:29;97874.94;;;1.69;96.30
70254;BME280;57649;42.968;1.608;2022-12-18T05:18:54;97883.41;;;1.75;95.90
70254;BME280;57649;42.968;1.608;2022-12-18T05:21:20;97880.22;;;1.69;96.09
70254;BME280;57649;42.968;1.608;2022-12-18T05:23:45;97887.09;;;1.72;96.05
70254;BME280;57649;42.968;1.608;2022-12-18T05:26:15;97893.00;;;1.76;95.32
70254;BME280;57649;42.968;1.608;2022-12-18T05:28:40;97894.91;;;1.73;95.83
70254;BME280;57649;42.968;1.608;2022-12-18T05:31:06;97892.50;;;1.70;95.27
70254;BME280;57649;42.968;1.608;2022-12-18T05:33:33;97888.88;;;1.71;95.65
70254;BME280;57649;42.968;1.608;2022-12-18T05:36:01;97898.59;;;1.71;96.03
70254;BME280;57649;42.968;1.608;2022-12-18T05:38:29;97895.00;;;1.72;95.72
70254;BME280;57649;42.968;1.608;2022-12-18T05:40:55;97912.31;;;1.63;96.41
70254;BME280;57649;42.968;1.608;2022-12-18T05:43:22;97910.78;;;1.59;96.76
70254;BME280;57649;42.968;1.608;2022-12-18T05:45:47;97923.06;;;1.60;96.71
70254;BME280;57649;42.968;1.608;2022-12-18T05:48:13;97938.88;;;1.60;96.82
70254;BME280;57649;42.968;1.608;2022-12-18T05:50:41;97940.06;;;1.42;99.05
70254;BME280;57649;42.968;1.608;2022-12-18T05:53:07;97934.16;;;1.38;99.57
70254;BME280;57649;42.968;1.608;2022-12-18T05:55:34;97940.84;;;1.29;100.00
70254;BME280;57649;42.968;1.608;2022-12-18T05:58:00;97951.97;;;1.06;100.00
70254;BME280;57649;42.968;1.608;2022-12-18T06:00:26;97955.00;;;1.14;100.00
70254;BME280;57649;42.968;1.608;2022-12-18T06:02:51;97949.16;;;1.09;100.00
70254;BME280;57649;42.968;1.608;2022-12-18T06:05:17;97949.72;;;1.14;99.41
70254;BME280;57649;42.968;1.608;2022-12-18T06:07:42;97951.97;;;1.20;99.07
70254;BME280;57649;42.968;1.608;2022-12-18T06:10:08;97959.88;;;1.20;99.19
70254;BME280;57649;42.968;1.608;2022-12-18T06:12:33;97966.66;;;1.24;100.00
70254;BME280;57649;42.968;1.608;2022-12-18T06:14:59;97963.94;;;1.26;99.97
70254;BME280;57649;42.968;1.608;2022-12-18T06:17:33;97965.91;;;1.22;100.00
70254;BME280;57649;42.968;1.608;2022-12-18T06:19:59;97971.19;;;1.22;100.00
70254;BME280;57649;42.968;1.608;2022-12-18T06:22:25;97960.63;;;1.22;100.00
70254;BME280;57649;42.968;1.608;2022-12-18T06:24:50;97971.94;;;1.10;100.00
70254;BME280;57649;42.968;1.608;2022-12-18T06:27:16;97969.22;;;1.11;100.00
70254;BME280;57649;42.968;1.608;2022-12-18T06:29:41;97961.78;;;1.04;100.00
70254;BME280;57649;42.968;1.608;2022-12-18T06:32:07;97953.78;;;1.05;100.00
70254;BME280;57649;42.968;1.608;2022-12-18T06:34:33;97961.78;;;1.04;100.00
70254;BME280;57649;42.968;1.608;2022-12-18T06:36:58;97950.41;;;1.03;100.00
70254;BME280;57649;42.968;1.608;2022-12-18T06:39:24;97952.56;;;0.96;99.80
70254;BME280;57649;42.968;1.608;2022-12-18T06:41:52;97960.19;;;1.01;99.19
70254;BME280;57649;42.968;1.608;2022-12-18T06:44:17;97963.09;;;0.96;99.41
70254;BME280;57649;42.968;1.608;2022-12-18T06:46:43;97949.25;;;0.93;99.46
70254;BME280;57649;42.968;1.608;2022-12-18T06:49:08;97953.88;;;0.89;99.63
70254;BME280;57649;42.968;1.608;2022-12-18T06:51:34;97955.56;;;0.90;100.00
70254;BME280;57649;42.968;1.608;2022-12-18T06:54:00;97954.91;;;0.87;99.55
70254;BME280;57649;42.968;1.608;2022-12-18T06:56:26;97954.81;;;0.74;100.00
70254;BME280;57649;42.968;1.608;2022-12-18T06:58:51;97952.84;;;0.77;99.73
70254;BME280;57649;42.968;1.608;2022-12-18T07:01:16;97945.69;;;0.80;100.00
70254;BME280;57649;42.968;1.608;2022-12-18T07:03:42;97955.19;;;0.82;100.00
70254;BME280;57649;42.968;1.608;2022-12-18T07:06:16;97943.22;;;0.76;100.00
70254;BME280;57649;42.968;1.608;2022-12-18T07:08:43;97948.16;;;0.83;100.00
70254;BME280;57649;42.968;1.608;2022-12-18T07:11:08;97945.13;;;0.89;99.75
70254;BME280;57649;42.968;1.608;2022-12-18T07:13:34;97953.50;;;0.95;99.10
70254;BME280;57649;42.968;1.608;2022-12-18T07:16:08;97955.84;;;1.00;98.17
70254;BME280;57649;42.968;1.608;2022-12-18T07:18:33;97951.63;;;0.98;97.83
70254;BME280;57649;42.968;1.608;2022-12-18T07:21:06;97956.59;;;1.02;97.78
70254;BME280;57649;42.968;1.608;2022-12-18T07:23:32;97951.06;;;1.07;98.03
70254;BME280;57649;42.968;1.608;2022-12-18T07:26:10;97955.75;;;1.02;98.24
70254;BME280;57649;42.968;1.608;2022-12-18T07:28:37;97946.13;;;1.01;97.90
70254;BME280;57649;42.968;1.608;2022-12-18T07:31:06;97937.56;;;1.11;97.68
70254;BME280;57649;42.968;1.608;2022-12-18T07:33:33;97946.34;;;1.12;97.65
70254;BME280;57649;42.968;1.608;2022-12-18T07:36:00;97943.41;;;1.02;98.42
70254;BME280;57649;42.968;1.608;2022-12-18T07:38:26;97930.91;;;0.91;99.12
70254;BME280;57649;42.968;1.608;2022-12-18T07:40:51;97943.06;;;1.08;99.53
70254;BME280;57649;42.968;1.608;2022-12-18T07:43:16;97938.63;;;1.09;97.65
70254;BME280;57649;42.968;1.608;2022-12-18T07:45:42;97933.16;;;1.12;97.83
70254;BME280;57649;42.968;1.608;2022-12-18T07:48:08;97944.38;;;1.15;97.71
70254;BME280;57649;42.968;1.608;2022-12-18T07:50:33;97945.13;;;1.18;99.34
70254;BME280;57649;42.968;1.608;2022-12-18T07:52:59;97949.34;;;1.06;99.04
70254;BME280;57649;42.968;1.608;2022-12-18T07:55:29;97949.91;;;1.11;99.79
70254;BME280;57649;42.968;1.608;2022-12-18T07:57:54;97949.50;;;1.31;96.81
70254;BME280;57649;42.968;1.608;2022-12-18T08:00:20;97954.59;;;1.34;96.03
70254;BME280;57649;42.968;1.608;2022-12-18T08:02:45;97948.06;;;1.40;95.86
70254;BME280;57649;42.968;1.608;2022-12-18T08:05:11;97954.00;;;1.44;95.39
70254;BME280;57649;42.968;1.608;2022-12-18T08:07:36;97937.53;;;1.40;95.39
70254;BME280;57649;42.968;1.608;2022-12-18T08:10:02;97944.69;;;1.38;95.90
70254;BME280;57649;42.968;1.608;2022-12-18T08:12:27;97943.72;;;1.53;94.98
70254;BME280;57649;42.968;1.608;2022-12-18T08:14:53;97936.47;;;1.43;96.42
70254;BME280;57649;42.968;1.608;2022-12-18T08:17:19;97941.56;;;1.46;96.88
70254;BME280;57649;42.968;1.608;2022-12-18T08:19:45;97953.44;;;1.39;98.36
70254;BME280;57649;42.968;1.608;2022-12-18T08:22:10;97938.94;;;1.46;97.63
70254;BME280;57649;42.968;1.608;2022-12-18T08:24:36;97952.72;;;1.22;98.36
70254;BME280;57649;42.968;1.608;2022-12-18T08:27:01;97957.25;;;1.20;98.11
70254;BME280;57649;42.968;1.608;2022-12-18T08:29:26;97960.28;;;1.28;97.47
70254;BME280;57649;42.968;1.608;2022-12-18T08:31:52;97957.34;;;1.19;97.90
70254;BME280;57649;42.968;1.608;2022-12-18T08:34:17;97953.28;;;1.27;99.55
70254;BME280;57649;42.968;1.608;2022-12-18T08:36:43;97956.66;;;1.29;99.48
70254;BME280;57649;42.968;1.608;2022-12-18T08:39:08;97960.06;;;1.31;100.00
70254;BME280;57649;42.968;1.608;2022-12-18T08:41:33;97955.72;;;1.45;99.76
70254;BME280;57649;42.968;1.608;2022-12-18T08:43:59;97938.88;;;1.60;98.57
70254;BME280;57649;42.968;1.608;2022-12-18T08:46:56;97939.88;;;1.72;97.46
70254;BME280;57649;42.968;1.608;2022-12-18T08:49:22;97954.72;;;1.87;95.75
70254;BME280;57649;42.968;1.608;2022-12-18T08:51:47;97952.94;;;1.88;95.95
70254;BME280;57649;42.968;1.608;2022-12-18T08:54:13;97968.03;;;1.86;96.40
70254;BME280;57649;42.968;1.608;2022-12-18T08:56:41;97957.09;;;1.78;97.40
70254;BME280;57649;42.968;1.608;2022-12-18T08:59:06;97951.81;;;2.05;96.36
70254;BME280;57649;42.968;1.608;2022-12-18T09:01:32;97943.69;;;2.08;95.39
70254;BME280;57649;42.968;1.608;2022-12-18T09:03:57;97949.00;;;2.21;95.93
70254;BME280;57649;42.968;1.608;2022-12-18T09:06:23;97951.38;;;2.25;95.98
70254;BME280;57649;42.968;1.608;2022-12-18T09:08:49;97944.66;;;2.20;95.38
70254;BME280;57649;42.968;1.608;2022-12-18T09:11:25;97932.34;;;2.33;96.39
70254;BME280;57649;42.968;1.608;2022-12-18T09:13:52;97927.88;;;2.21;96.00
70254;BME280;57649;42.968;1.608;2022-12-18T09:16:19;97913.31;;;2.28;96.75
70254;BME280;57649;42.968;1.608;2022-12-18T09:18:45;97929.25;;;2.26;95.83
70254;BME280;57649;42.968;1.608;2022-12-18T09:21:15;97924.41;;;2.33;94.95
70254;BME280;57649;42.968;1.608;2022-12-18T09:23:41;97915.22;;;2.39;94.94
70254;BME280;57649;42.968;1.608;2022-12-18T09:26:07;97927.19;;;2.44;96.89
70254;BME280;57649;42.968;1.608;2022-12-18T09:28:33;97927.81;;;2.35;98.22
70254;BME280;57649;42.968;1.608;2022-12-18T09:30:58;97945.88;;;2.41;98.29
70254;BME280;57649;42.968;1.608;2022-12-18T09:33:24;97940.50;;;2.43;98.10
70254;BME280;57649;42.968;1.608;2022-12-18T09:35:49;97935.84;;;2.46;98.14
70254;BME280;57649;42.968;1.608;2022-12-18T09:38:17;97934.38;;;2.68;95.54
70254;BME280;57649;42.968;1.608;2022-12-18T09:40:51;97937.13;;;2.79;96.28
70254;BME280;57649;42.968;1.608;2022-12-18T09:43:21;97926.31;;;3.08;91.59
70254;BME280;57649;42.968;1.608;2022-12-18T09:46:03;97934.41;;;3.31;90.99
70254;BME280;57649;42.968;1.608;2022-12-18T09:48:40;97943.41;;;3.65;89.22
70254;BME280;57649;42.968;1.608;2022-12-18T09:51:19;97944.22;;;3.78;87.50
70254;BME280;57649;42.968;1.608;2022-12-18T09:53:53;97938.84;;;3.91;85.99
70254;BME280;57649;42.968;1.608;2022-12-18T09:56:22;97947.88;;;4.13;84.80
70254;BME280;57649;42.968;1.608;2022-12-18T09:58:59;97940.47;;;4.29;83.39
70254;BME280;57649;42.968;1.608;2022-12-18T10:01:26;97929.88;;;4.40;82.02
70254;BME280;57649;42.968;1.608;2022-12-18T10:03:53;97930.91;;;4.62;81.06
70254;BME280;57649;42.968;1.608;2022-12-18T10:06:49;97929.47;;;4.80;80.29
70254;BME280;57649;42.968;1.608;2022-12-18T10:09:36;97930.31;;;4.92;80.14
70254;BME280;57649;42.968;1.608;2022-12-18T10:12:17;97924.91;;;5.28;78.27
70254;BME280;57649;42.968;1.608;2022-12-18T10:17:26;97922.63;;;5.78;77.86
70254;BME280;57649;42.968;1.608;2022-12-18T10:20:02;97915.31;;;5.91;76.97
70254;BME280;57649;42.968;1.608;2022-12-18T10:22:44;97913.13;;;6.08;78.00
70254;BME280;57649;42.968;1.608;2022-12-18T10:27:40;97900.38;;;6.23;76.65
70254;BME280;57649;42.968;1.608;2022-12-18T10:30:14;97889.53;;;6.35;77.45
70254;BME280;57649;42.968;1.608;2022-12-18T10:32:40;97892.78;;;6.60;75.37
70254;BME280;57649;42.968;1.608;2022-12-18T10:35:15;97891.28;;;6.67;75.51
70254;BME280;57649;42.968;1.608;2022-12-18T10:38:03;97878.72;;;7.10;72.44
70254;BME280;57649;42.968;1.608;2022-12-18T10:40:29;97870.00;;;7.39;71.09
70254;BME280;57649;42.968;1.608;2022-12-18T10:43:12;97869.06;;;7.69;70.35
70254;BME280;57649;42.968;1.608;2022-12-18T10:45:38;97866.81;;;7.84;71.03
70254;BME280;57649;42.968;1.608;2022-12-18T10:48:04;97867.53;;;7.96;70.41
70254;BME280;57649;42.968;1.608;2022-12-18T10:50:46;97862.59;;;8.20;69.80
70254;BME280;57649;42.968;1.608;2022-12-18T10:53:19;97844.63;;;8.32;69.06
70254;BME280;57649;42.968;1.608;2022-12-18T10:55:45;97847.41;;;8.40;68.72
70254;BME280;57649;42.968;1.608;2022-12-18T10:58:25;97855.31;;;8.42;70.87
70254;BME280;57649;42.968;1.608;2022-12-18T11:08:31;97835.69;;;9.08;65.34
70254;BME280;57649;42.968;1.608;2022-12-18T11:10:57;97834.31;;;9.04;66.93
70254;BME280;57649;42.968;1.608;2022-12-18T11:13:25;97832.31;;;9.16;66.60
70254;BME280;57649;42.968;1.608;2022-12-18T11:15:51;97830.63;;;9.15;65.46
70254;BME280;57649;42.968;1.608;2022-12-18T11:18:20;97834.03;;;9.35;65.80
70254;BME280;57649;42.968;1.608;2022-12-18T11:20:52;97832.88;;;9.37;64.81
70254;BME280;57649;42.968;1.608;2022-12-18T11:23:19;97845.16;;;9.30;63.74
70254;BME280;57649;42.968;1.608;2022-12-18T11:25:58;97842.78;;;9.27;64.04
70254;BME280;57649;42.968;1.608;2022-12-18T11:31:29;97842.69;;;9.19;65.98
70254;BME280;57649;42.968;1.608;2022-12-18T11:34:18;97840.38;;;8.69;69.90
70254;BME280;57649;42.968;1.608;2022-12-18T11:36:46;97842.13;;;8.50;72.41
70254;BME280;57649;42.968;1.608;2022-12-18T11:39:18;97844.00;;;8.67;70.12
70254;BME280;57649;42.968;1.608;2022-12-18T11:41:53;97833.50;;;9.03;68.98
70254;BME280;57649;42.968;1.608;2022-12-18T11:44:47;97824.72;;;9.11;67.50
70254;BME280;57649;42.968;1.608;2022-12-18T11:50:02;97806.38;;;9.26;67.03
70254;BME280;57649;42.968;1.608;2022-12-18T11:52:36;97813.78;;;9.32;66.26
70254;BME280;57649;42.968;1.608;2022-12-18T11:55:15;97813.16;;;9.20;66.33
70254;BME280;57649;42.968;1.608;2022-12-18T12:00:18;97794.31;;;9.22;65.56
70254;BME280;57649;42.968;1.608;2022-12-18T12:03:14;97797.38;;;9.27;66.47
70254;BME280;57649;42.968;1.608;2022-12-18T12:09:00;97802.53;;;9.56;66.30
70254;BME280;57649;42.968;1.608;2022-12-18T12:16:57;97790.84;;;9.75;66.54
70254;BME280;57649;42.968;1.608;2022-12-18T12:22:48;97782.19;;;9.81;66.13
70254;BME280;57649;42.968;1.608;2022-12-18T12:27:42;97764.53;;;9.89;67.17
70254;BME280;57649;42.968;1.608;2022-12-18T12:32:51;97761.59;;;10.00;68.23
70254;BME280;57649;42.968;1.608;2022-12-18T12:35:55;97757.16;;;10.09;67.50
70254;BME280;57649;42.968;1.608;2022-12-18T12:38:31;97744.66;;;10.09;69.25
70254;BME280;57649;42.968;1.608;2022-12-18T12:41:04;97745.78;;;10.07;71.32
70254;BME280;57649;42.968;1.608;2022-12-18T12:43:39;97758.09;;;10.26;72.04
70254;BME280;57649;42.968;1.608;2022-12-18T12:46:09;97754.44;;;10.27;75.00
70254;BME280;57649;42.968;1.608;2022-12-18T12:51:22;97767.13;;;10.43;80.98
70254;BME280;57649;42.968;1.608;2022-12-18T12:53:50;97773.44;;;10.33;83.67
70254;BME280;57649;42.968;1.608;2022-12-18T12:56:18;97771.75;;;10.14;85.93
70254;BME280;57649;42.968;1.608;2022-12-18T13:01:41;97771.69;;;10.06;87.96
70254;BME280;57649;42.968;1.608;2022-12-18T13:04:34;97773.88;;;10.11;87.75
70254;BME280;57649;42.968;1.608;2022-12-18T13:07:10;97775.69;;;10.02;87.30
70254;BME280;57649;42.968;1.608;2022-12-18T13:10:11;97786.81;;;10.15;87.80
70254;BME280;57649;42.968;1.608;2022-12-18T13:12:51;97776.09;;;10.15;88.35
70254;BME280;57649;42.968;1.608;2022-12-18T13:15:34;97782.81;;;10.19;88.27
70254;BME280;57649;42.968;1.608;2022-12-18T13:20:38;97787.72;;;10.24;88.06
70254;BME280;57649;42.968;1.608;2022-12-18T13:29:05;97794.03;;;10.41;86.82
70254;BME280;57649;42.968;1.608;2022-12-18T13:31:06;97768.59;;;10.37;87.58
70254;BME280;57649;42.968;1.608;2022-12-18T13:36:33;97785.94;;;10.33;87.02
70254;BME280;57649;42.968;1.608;2022-12-18T13:41:44;97773.84;;;10.47;86.46
70254;BME280;57649;42.968;1.608;2022-12-18T13:44:24;97764.09;;;10.37;87.04
70254;BME280;57649;42.968;1.608;2022-12-18T13:46:51;97767.91;;;10.35;85.87
70254;BME280;57649;42.968;1.608;2022-12-18T13:51:55;97756.34;;;10.61;84.86
70254;BME280;57649;42.968;1.608;2022-12-18T13:54:40;97761.22;;;10.65;85.18
70254;BME280;57649;42.968;1.608;2022-12-18T13:57:27;97748.25;;;10.87;84.70
70254;BME280;57649;42.968;1.608;2022-12-18T13:59:53;97749.25;;;10.86;83.78
70254;BME280;57649;42.968;1.608;2022-12-18T14:02:24;97738.84;;;10.74;84.21
70254;BME280;57649;42.968;1.608;2022-12-18T14:04:50;97743.19;;;10.75;84.19
70254;BME280;57649;42.968;1.608;2022-12-18T14:07:22;97743.41;;;10.90;84.02
70254;BME280;57649;42.968;1.608;2022-12-18T14:10:00;97750.44;;;10.83;83.49
70254;BME280;57649;42.968;1.608;2022-12-18T14:12:28;97748.06;;;10.80;84.49
70254;BME280;57649;42.968;1.608;2022-12-18T14:17:49;97755.94;;;10.82;83.63
70254;BME280;57649;42.968;1.608;2022-12-18T14:20:15;97760.13;;;10.84;84.01
70254;BME280;57649;42.968;1.608;2022-12-18T14:22:43;97765.47;;;10.84;84.76
70254;BME280;57649;42.968;1.608;2022-12-18T14:27:46;97760.09;;;10.76;83.27
70254;BME280;57649;42.968;1.608;2022-12-18T14:33:15;97759.28;;;10.49;86.04
70254;BME280;57649;42.968;1.608;2022-12-18T14:35:51;97760.91;;;10.42;85.74
70254;BME280;57649;42.968;1.608;2022-12-18T14:38:37;97765.06;;;10.36;86.19
70254;BME280;57649;42.968;1.608;2022-12-18T14:41:11;97763.00;;;10.30;87.15
70254;BME280;57649;42.968;1.608;2022-12-18T14:43:41;97775.94;;;10.35;87.29
70254;BME280;57649;42.968;1.608;2022-12-18T14:48:59;97785.50;;;10.19;88.59
70254;BME280;57649;42.968;1.608;2022-12-18T14:51:27;97792.47;;;10.12;88.80
70254;BME280;57649;42.968;1.608;2022-12-18T14:53:58;97790.41;;;10.06;89.76
70254;BME280;57649;42.968;1.608;2022-12-18T14:56:34;97784.16;;;9.97;90.21